Time;durP1;ratioP1;P1;durP2;ratioP2;P2;SDS_P1;SDS_P2;PMS_P1;PMS_P2;Temp;Humidity;BMP_temperature;BMP_pressure;BME280_temperature;BME280_humidity;BME280_pressure;Samples;Min_cycle;Max_cycle;Signal;HPM_P1;HPM_P2
2022/03/26 00:01:29;;;;;;;15.40;11.05;;;14.50;62.70;;;;;;10906668;32;20045;-71
2022/03/26 00:07:31;;;;;;;15.43;10.00;;;14.60;62.60;;;;;;10906573;32;20438;-71
2022/03/26 00:13:33;;;;;;;14.90;11.48;;;14.50;62.70;;;;;;10906419;32;20019;-71
2022/03/26 00:19:36;;;;;;;17.83;11.63;;;14.60;62.80;;;;;;10906062;32;20027;-71
2022/03/26 00:25:38;;;;;;;17.60;14.68;;;14.60;62.90;;;;;;10905787;32;20027;-71
2022/03/26 00:31:40;;;;;;;17.90;11.05;;;14.40;63.10;;;;;;10905339;32;20015;-71
2022/03/26 00:37:42;;;;;;;20.27;15.20;;;14.30;63.10;;;;;;10905553;32;20024;-71
2022/03/26 00:43:44;;;;;;;20.80;15.85;;;14.20;63.50;;;;;;10905525;32;20032;-71
2022/03/26 00:49:46;;;;;;;19.65;13.85;;;14.20;63.60;;;;;;10905473;32;20038;-71
2022/03/26 00:55:48;;;;;;;22.08;16.00;;;14.20;63.60;;;;;;10900932;32;20027;-71
2022/03/26 01:01:51;;;;;;;19.52;13.35;;;14.20;63.50;;;;;;10904875;32;20340;-71
2022/03/26 01:07:53;;;;;;;22.52;15.80;;;14.20;63.90;;;;;;10900566;32;20031;-71
2022/03/26 01:13:56;;;;;;;21.40;12.73;;;14.10;64.00;;;;;;10900399;32;20023;-71
2022/03/26 01:19:59;;;;;;;19.65;14.90;;;13.90;63.90;;;;;;10900208;32;20065;-71
2022/03/26 01:26:02;;;;;;;14.55;11.85;;;13.80;63.60;;;;;;10904115;32;20085;-71
2022/03/26 01:32:07;;;;;;;20.75;16.17;;;13.70;63.90;;;;;;10904206;32;20027;-71
2022/03/26 01:38:09;;;;;;;24.83;18.62;;;13.70;63.90;;;;;;10904195;32;20019;-71
2022/03/26 01:44:13;;;;;;;27.62;19.65;;;13.60;64.10;;;;;;10908620;32;20062;-71
2022/03/26 01:50:15;;;;;;;25.80;18.70;;;13.60;63.70;;;;;;10911466;32;20073;-71
2022/03/26 01:56:18;;;;;;;36.53;26.12;;;13.40;63.80;;;;;;10911304;32;20023;-71
2022/03/26 02:02:20;;;;;;;31.02;22.02;;;13.40;63.70;;;;;;10911247;32;20049;-71
2022/03/26 02:08:22;;;;;;;32.53;27.05;;;13.30;63.40;;;;;;10911177;32;20049;-71
2022/03/26 02:14:25;;;;;;;29.70;22.52;;;13.30;63.50;;;;;;10906845;32;20024;-71
2022/03/26 02:20:27;;;;;;;28.20;21.75;;;13.30;63.30;;;;;;10910403;32;20324;-71
2022/03/26 02:26:29;;;;;;;23.62;16.48;;;13.20;63.60;;;;;;10910321;32;20019;-71
2022/03/26 02:32:32;;;;;;;18.40;13.35;;;13.10;63.80;;;;;;10910118;32;20077;-71
2022/03/26 02:38:34;;;;;;;23.60;14.70;;;13.00;64.30;;;;;;10907574;32;20019;-71
2022/03/26 02:44:37;;;;;;;18.52;14.77;;;12.90;64.40;;;;;;10909434;32;20407;-71
2022/03/26 02:50:43;;;;;;;22.00;15.48;;;12.80;64.70;;;;;;10909637;32;20019;-71
2022/03/26 02:56:50;;;;;;;26.85;17.25;;;12.70;65.00;;;;;;10904732;32;20049;-71
2022/03/26 03:02:52;;;;;;;33.60;23.20;;;12.70;65.20;;;;;;10909136;32;20074;-71
2022/03/26 03:08:54;;;;;;;25.50;14.18;;;12.60;65.40;;;;;;10908824;32;20050;-71
2022/03/26 03:14:56;;;;;;;20.90;13.80;;;12.60;65.20;;;;;;10908707;32;20026;-71
2022/03/26 03:20:58;;;;;;;20.77;15.40;;;12.50;65.40;;;;;;10908303;32;20023;-71
2022/03/26 03:27:00;;;;;;;26.20;15.80;;;12.40;65.70;;;;;;10894533;32;20284;-71
2022/03/26 03:33:02;;;;;;;36.40;28.50;;;12.40;65.60;;;;;;10907937;32;20027;-71
2022/03/26 03:39:05;;;;;;;25.55;19.65;;;12.30;65.50;;;;;;10907718;32;20031;-71
2022/03/26 03:45:09;;;;;;;22.37;15.20;;;12.30;65.50;;;;;;10903123;32;20032;-71
2022/03/26 03:51:11;;;;;;;17.87;12.85;;;12.20;65.50;;;;;;10907119;32;20016;-71
2022/03/26 03:57:12;;;;;;;22.77;15.35;;;12.00;66.10;;;;;;10906969;32;20027;-71
2022/03/26 04:03:16;;;;;;;20.12;16.12;;;12.00;66.20;;;;;;10906202;32;20027;-72
2022/03/26 04:09:20;;;;;;;31.30;24.55;;;11.90;66.30;;;;;;10906084;32;20062;-71
2022/03/26 04:15:22;;;;;;;21.80;15.70;;;11.90;66.10;;;;;;10906025;32;20020;-71
2022/03/26 04:21:25;;;;;;;20.02;14.52;;;11.90;66.10;;;;;;10905916;32;20023;-71
2022/03/26 04:27:27;;;;;;;19.70;16.83;;;11.80;66.20;;;;;;10905663;32;20019;-71
2022/03/26 04:33:30;;;;;;;23.50;17.15;;;11.70;66.40;;;;;;10905380;32;20053;-71
2022/03/26 04:39:38;;;;;;;19.20;14.73;;;11.70;66.40;;;;;;10905296;32;20050;-71
2022/03/26 04:45:40;;;;;;;19.90;15.23;;;11.60;66.50;;;;;;10905033;32;20038;-71
2022/03/26 04:51:42;;;;;;;29.25;22.08;;;11.50;66.70;;;;;;10902187;32;20057;-71
2022/03/26 04:57:51;;;;;;;19.77;13.68;;;11.50;66.70;;;;;;10904904;32;20011;-71
2022/03/26 05:03:53;;;;;;;33.97;26.30;;;11.20;66.90;;;;;;10904502;32;20292;-71
2022/03/26 05:09:55;;;;;;;31.92;22.85;;;11.30;67.10;;;;;;10904456;32;20038;-71
2022/03/26 05:15:57;;;;;;;25.55;17.80;;;11.30;67.00;;;;;;10904175;32;20011;-71
2022/03/26 05:21:59;;;;;;;22.00;16.05;;;11.40;66.60;;;;;;10899861;32;20337;-71
2022/03/26 05:28:02;;;;;;;20.80;13.57;;;11.40;66.80;;;;;;10904080;32;20061;-71
2022/03/26 05:34:04;;;;;;;22.87;14.75;;;11.30;66.80;;;;;;10903840;32;20050;-71
2022/03/26 05:40:07;;;;;;;20.02;12.93;;;11.20;67.20;;;;;;10903939;32;20023;-71
2022/03/26 05:46:11;;;;;;;24.23;15.07;;;11.20;67.30;;;;;;10903814;32;20031;-71
2022/03/26 05:52:13;;;;;;;15.95;10.70;;;11.10;67.40;;;;;;10890293;32;20027;-71
2022/03/26 05:58:15;;;;;;;19.30;14.50;;;11.20;67.70;;;;;;10890398;32;20027;-71
2022/03/26 06:04:17;;;;;;;20.75;14.05;;;11.30;67.50;;;;;;10903429;32;20031;-68
2022/03/26 06:10:20;;;;;;;18.90;13.75;;;11.40;67.30;;;;;;10903308;32;20054;-69
2022/03/26 06:16:22;;;;;;;20.00;13.62;;;11.50;67.30;;;;;;10898912;32;20059;-69
2022/03/26 06:22:25;;;;;;;21.85;13.62;;;11.60;67.20;;;;;;10889742;32;20031;-68
2022/03/26 06:28:28;;;;;;;17.08;12.35;;;11.70;67.10;;;;;;10891949;32;20049;-68
2022/03/26 06:34:30;;;;;;;25.25;15.65;;;11.70;67.10;;;;;;10909503;32;20050;-68
2022/03/26 06:40:32;;;;;;;17.40;12.48;;;11.80;67.10;;;;;;10905311;32;20081;-68
2022/03/26 06:46:39;;;;;;;28.80;19.40;;;11.80;67.00;;;;;;10895745;32;20047;-68
2022/03/26 06:52:41;;;;;;;24.45;17.98;;;11.90;67.00;;;;;;10908903;32;20023;-68
2022/03/26 06:58:44;;;;;;;30.35;23.40;;;12.00;67.20;;;;;;10908760;32;20028;-68
2022/03/26 07:04:46;;;;;;;30.42;19.52;;;12.20;66.60;;;;;;10881462;32;20036;-69
2022/03/26 07:10:49;;;;;;;23.95;16.27;;;12.20;66.30;;;;;;10871043;32;20042;-68
2022/03/26 07:16:52;;;;;;;36.92;25.88;;;12.20;66.00;;;;;;10531953;27;12584404;-68
2022/03/26 07:22:54;;;;;;;20.95;13.27;;;12.50;65.40;;;;;;10793544;33;20134;-68
2022/03/26 07:28:57;;;;;;;22.35;16.70;;;12.60;64.80;;;;;;10792495;33;20016;-68
2022/03/26 07:34:59;;;;;;;30.12;24.50;;;12.70;64.10;;;;;;10791753;33;20040;-69
2022/03/26 07:41:01;;;;;;;25.65;14.18;;;12.90;64.00;;;;;;10792260;33;20416;-68
2022/03/26 07:47:03;;;;;;;28.35;22.58;;;13.00;63.60;;;;;;10822373;32;20058;-69
2022/03/26 07:53:06;;;;;;;20.88;14.65;;;13.20;63.60;;;;;;10832331;32;20058;-68
2022/03/26 07:59:08;;;;;;;34.55;23.45;;;13.40;62.40;;;;;;10827170;32;20063;-68
2022/03/26 08:05:10;;;;;;;28.80;22.95;;;13.50;62.10;;;;;;10859830;32;20035;-68
2022/03/26 08:11:12;;;;;;;28.92;18.73;;;13.70;61.40;;;;;;10868905;32;20063;-68
2022/03/26 08:17:14;;;;;;;27.48;18.05;;;13.80;59.90;;;;;;10864441;32;20051;-68
2022/03/26 08:23:16;;;;;;;20.83;13.52;;;14.00;59.80;;;;;;10868330;32;20054;-68
2022/03/26 08:29:19;;;;;;;22.35;15.77;;;14.20;59.80;;;;;;10868033;32;20019;-69
2022/03/26 08:35:21;;;;;;;29.12;19.50;;;14.40;59.70;;;;;;10865925;32;20054;-68
2022/03/26 08:41:23;;;;;;;18.70;10.98;;;14.60;59.40;;;;;;10867590;32;20430;-69
2022/03/26 08:47:25;;;;;;;19.23;12.30;;;14.80;58.30;;;;;;10867625;32;20054;-69
2022/03/26 08:53:27;;;;;;;21.33;13.07;;;15.00;58.10;;;;;;10853946;32;20020;-69
2022/03/26 08:59:29;;;;;;;16.15;11.95;;;15.20;57.30;;;;;;10863120;32;20033;-69
2022/03/26 09:05:31;;;;;;;18.30;11.52;;;15.30;56.60;;;;;;10867058;32;20031;-69
2022/03/26 09:11:34;;;;;;;17.00;13.65;;;15.60;55.80;;;;;;10865936;32;20046;-69
2022/03/26 09:17:37;;;;;;;20.75;13.77;;;15.70;54.50;;;;;;10862533;32;20020;-69
2022/03/26 09:23:39;;;;;;;24.80;14.60;;;15.90;54.00;;;;;;10866219;32;20400;-69
2022/03/26 09:29:41;;;;;;;21.55;17.42;;;16.00;52.30;;;;;;10866540;32;20050;-69
2022/03/26 09:35:44;;;;;;;20.88;15.40;;;16.20;50.30;;;;;;10849625;32;20047;-69
2022/03/26 09:41:47;;;;;;;21.10;13.95;;;16.40;48.80;;;;;;10832959;32;20333;-69
2022/03/26 09:47:49;;;;;;;21.65;15.35;;;16.70;48.40;;;;;;10851785;32;20036;-69
2022/03/26 09:53:52;;;;;;;12.68;9.15;;;16.80;48.20;;;;;;10866206;32;20400;-69
2022/03/26 09:59:56;;;;;;;16.83;11.98;;;16.90;48.30;;;;;;10866230;32;20019;-69
2022/03/26 10:06:07;;;;;;;15.55;8.23;;;17.10;47.30;;;;;;10869841;32;20332;-68
2022/03/26 10:12:10;;;;;;;15.43;11.95;;;17.30;47.00;;;;;;10859818;32;20027;-69
2022/03/26 10:18:12;;;;;;;14.38;10.98;;;17.40;46.50;;;;;;10872925;32;20054;-69
2022/03/26 10:24:15;;;;;;;16.10;11.30;;;17.60;45.80;;;;;;10872125;32;20036;-69
2022/03/26 10:32:38;;;;;;;19.50;13.43;;;17.80;43.50;;;;;;10872398;32;20031;-69
2022/03/26 10:36:47;;;;;;;17.60;11.93;;;18.00;42.10;;;;;;10871347;32;20074;-69
2022/03/26 10:42:54;;;;;;;24.87;16.23;;;18.20;42.10;;;;;;10843664;32;20020;-70
2022/03/26 10:49:02;;;;;;;19.02;14.02;;;18.50;42.50;;;;;;10834746;32;20027;-70
2022/03/26 10:55:15;;;;;;;19.30;12.60;;;18.70;41.80;;;;;;10834542;32;20050;-69
2022/03/26 11:01:18;;;;;;;20.50;15.98;;;18.80;41.00;;;;;;10834414;32;20024;-69
2022/03/26 11:07:20;;;;;;;19.65;13.73;;;19.10;39.40;;;;;;10820920;32;20025;-69
2022/03/26 11:13:26;;;;;;;14.40;9.88;;;19.30;39.60;;;;;;10819875;32;20086;-69
2022/03/26 11:19:55;;;;;;;20.92;15.07;;;19.60;39.70;;;;;;10830395;32;20021;-69
2022/03/26 11:26:18;;;;;;;17.62;14.90;;;20.00;39.10;;;;;;10833168;32;20344;-69
2022/03/26 11:32:32;;;;;;;17.15;10.60;;;20.30;37.60;;;;;;10833318;32;20046;-69
2022/03/26 11:38:34;;;;;;;15.88;10.63;;;20.70;36.90;;;;;;10832856;32;20051;-69
2022/03/26 11:50:41;;;;;;;14.75;10.80;;;21.00;36.90;;;;;;10832864;32;20020;-69
2022/03/26 11:51:22;;;;;;;20.90;12.37;;;21.30;36.80;;;;;;10832798;32;20348;-69
2022/03/26 11:57:25;;;;;;;18.37;12.63;;;21.50;36.10;;;;;;10832497;32;20312;-70
2022/03/26 12:03:31;;;;;;;19.60;12.80;;;21.40;35.00;;;;;;10832304;32;20400;-70
2022/03/26 12:09:37;;;;;;;20.88;10.75;;;21.50;34.60;;;;;;10827779;33;20038;-69
2022/03/26 12:15:39;;;;;;;18.95;13.45;;;21.60;36.40;;;;;;10827689;33;20051;-69
2022/03/26 12:21:51;;;;;;;17.92;11.85;;;21.80;35.40;;;;;;10831473;32;20054;-69
2022/03/26 12:27:53;;;;;;;18.92;11.35;;;21.80;35.30;;;;;;10829391;32;20055;-70
2022/03/26 12:33:56;;;;;;;17.90;14.20;;;21.90;34.20;;;;;;10831200;32;20047;-70
2022/03/26 12:39:58;;;;;;;16.73;9.43;;;22.10;33.30;;;;;;10830906;32;20020;-70
2022/03/26 12:46:05;;;;;;;24.50;15.65;;;22.20;33.40;;;;;;10830597;32;20036;-70
2022/03/26 12:52:07;;;;;;;23.83;17.20;;;22.30;33.30;;;;;;10817353;32;20043;-70
2022/03/26 13:04:54;;;;;;;17.00;11.35;;;22.20;33.70;;;;;;10830176;32;20341;-69
2022/03/26 13:10:56;;;;;;;16.02;12.00;;;22.20;32.60;;;;;;10841075;32;20032;-69
2022/03/26 13:16:58;;;;;;;18.87;13.62;;;22.30;32.90;;;;;;10866845;32;20031;-70
2022/03/26 13:23:03;;;;;;;25.12;17.83;;;22.50;32.50;;;;;;10866253;32;20348;-70
2022/03/26 13:29:13;;;;;;;17.17;15.30;;;22.60;33.20;;;;;;10866319;32;20032;-70
2022/03/26 13:35:15;;;;;;;19.73;15.82;;;22.40;33.00;;;;;;10866311;32;20031;-69
2022/03/26 13:41:20;;;;;;;19.35;15.20;;;22.50;32.80;;;;;;10860720;32;20329;-70
2022/03/26 13:47:30;;;;;;;16.33;13.10;;;22.70;33.00;;;;;;10872943;32;20063;-70
2022/03/26 13:53:39;;;;;;;23.67;20.62;;;22.90;32.90;;;;;;10860654;32;20059;-70
2022/03/26 13:59:50;;;;;;;20.90;14.02;;;23.00;32.10;;;;;;10870143;32;20062;-69
2022/03/26 14:05:53;;;;;;;20.27;14.45;;;22.90;32.00;;;;;;10859521;32;20046;-69
2022/03/26 14:11:56;;;;;;;25.85;16.12;;;23.00;31.90;;;;;;10855482;32;20035;-70
2022/03/26 14:17:59;;;;;;;28.10;20.00;;;23.20;31.70;;;;;;10869446;32;20058;-71
2022/03/26 14:24:01;;;;;;;21.05;13.85;;;23.30;31.40;;;;;;10872481;32;20023;-70
2022/03/26 14:30:04;;;;;;;21.42;19.08;;;23.20;30.90;;;;;;10872106;32;20446;-70
2022/03/26 14:36:09;;;;;;;27.37;19.92;;;23.30;30.70;;;;;;10867268;32;20035;-70
2022/03/26 14:42:11;;;;;;;24.12;17.17;;;23.40;30.00;;;;;;10870316;32;20058;-70
2022/03/26 14:48:14;;;;;;;22.77;17.80;;;23.50;29.30;;;;;;10857954;32;20044;-70
2022/03/26 14:54:16;;;;;;;29.25;17.35;;;23.60;28.70;;;;;;10858224;32;20050;-70
2022/03/26 15:00:19;;;;;;;17.23;14.65;;;23.70;28.70;;;;;;10869349;32;20034;-70
2022/03/26 15:06:31;;;;;;;19.17;15.05;;;23.70;28.70;;;;;;10857014;32;20518;-70
2022/03/26 15:12:35;;;;;;;17.05;13.40;;;23.80;28.30;;;;;;10870627;32;20058;-70
2022/03/26 15:18:37;;;;;;;20.67;14.55;;;23.90;27.70;;;;;;10874566;27;20066;-70
2022/03/26 15:24:39;;;;;;;15.90;14.20;;;24.10;27.40;;;;;;10869316;32;20031;-71
2022/03/26 15:30:41;;;;;;;16.87;13.23;;;24.20;27.30;;;;;;10868358;32;20431;-71
2022/03/26 15:36:43;;;;;;;17.33;14.38;;;24.60;27.00;;;;;;10869693;32;20473;-71
2022/03/26 15:42:46;;;;;;;18.85;15.38;;;24.70;26.40;;;;;;10869848;32;20027;-71
2022/03/26 15:48:48;;;;;;;22.27;15.30;;;24.80;26.40;;;;;;10869790;32;20335;-71
2022/03/26 15:54:50;;;;;;;20.75;13.95;;;25.10;25.70;;;;;;10859834;32;20324;-72
2022/03/26 16:00:52;;;;;;;17.67;14.45;;;25.50;25.50;;;;;;10855472;32;20036;-72
2022/03/26 16:06:54;;;;;;;19.33;15.75;;;25.80;25.30;;;;;;10862840;32;20051;-72
2022/03/26 16:13:22;;;;;;;15.70;12.80;;;25.90;25.30;;;;;;10867897;32;20023;-72
2022/03/26 16:19:25;;;;;;;;;;;26.10;25.30;;;;;;10868846;32;20062;-72
2022/03/26 16:25:27;;;;;;;17.12;13.80;;;26.40;25.50;;;;;;10868012;32;19954;-72
2022/03/26 16:31:38;;;;;;;12.90;10.00;;;26.80;25.70;;;;;;10867680;32;20389;-71
2022/03/26 16:37:41;;;;;;;12.82;10.05;;;26.70;25.90;;;;;;10868031;32;20035;-71
2022/03/26 16:43:43;;;;;;;16.58;10.93;;;26.70;26.30;;;;;;10867373;32;20050;-72
2022/03/26 16:49:46;;;;;;;14.27;10.98;;;26.10;26.70;;;;;;10862983;32;20046;-72
2022/03/26 16:55:48;;;;;;;12.57;8.63;;;25.80;27.20;;;;;;10866416;32;20024;-72
2022/03/26 17:01:57;;;;;;;12.13;8.60;;;25.40;27.80;;;;;;10863670;32;20050;-72
2022/03/26 17:07:59;;;;;;;13.07;7.65;;;24.80;28.70;;;;;;10865079;32;20035;-72
2022/03/26 17:14:01;;;;;;;9.35;7.10;;;24.00;29.60;;;;;;10866495;32;20139;-72
2022/03/26 17:20:16;;;;;;;12.05;7.80;;;23.30;30.40;;;;;;10861708;32;20089;-72
2022/03/26 17:26:19;;;;;;;14.38;7.95;;;22.50;31.30;;;;;;10862762;32;20035;-72
2022/03/26 17:32:21;;;;;;;19.83;8.73;;;21.80;31.90;;;;;;10853460;32;20027;-72
2022/03/26 17:38:24;;;;;;;12.88;7.82;;;21.30;32.50;;;;;;10866597;32;20089;-72
2022/03/26 17:44:26;;;;;;;10.77;7.12;;;20.90;33.00;;;;;;10866527;32;20050;-72
2022/03/26 17:50:28;;;;;;;12.43;7.25;;;20.60;33.40;;;;;;10865927;32;20031;-72
2022/03/26 17:56:30;;;;;;;10.35;6.45;;;20.20;33.80;;;;;;10866467;32;20395;-72
2022/03/26 18:02:32;;;;;;;10.95;7.32;;;20.00;34.30;;;;;;10862120;32;20074;-72
2022/03/26 18:08:49;;;;;;;12.43;7.47;;;19.80;34.60;;;;;;10866092;32;20438;-71
2022/03/26 18:14:51;;;;;;;8.40;5.70;;;19.60;35.20;;;;;;10852862;32;20036;-72
2022/03/26 18:20:53;;;;;;;13.48;7.25;;;19.30;35.70;;;;;;10861470;32;20093;-72
2022/03/26 18:26:57;;;;;;;10.80;7.85;;;19.10;36.10;;;;;;10871145;32;20036;-72
2022/03/26 18:32:59;;;;;;;9.65;6.93;;;19.00;36.70;;;;;;10872753;32;20316;-72
2022/03/26 18:39:01;;;;;;;10.85;7.37;;;18.80;37.40;;;;;;10872133;32;20031;-72
2022/03/26 18:45:04;;;;;;;11.82;7.97;;;18.70;38.00;;;;;;10872176;32;20035;-72
2022/03/26 18:51:06;;;;;;;16.45;10.43;;;18.50;38.70;;;;;;10872005;32;20031;-72
2022/03/26 18:57:08;;;;;;;15.48;11.65;;;18.40;39.70;;;;;;10871487;32;20035;-72
2022/03/26 19:03:12;;;;;;;15.43;12.35;;;18.20;40.60;;;;;;10870758;32;20059;-72
2022/03/26 19:09:14;;;;;;;18.08;13.55;;;18.00;41.50;;;;;;10869856;32;20375;-72
2022/03/26 19:15:16;;;;;;;19.65;16.17;;;17.80;43.30;;;;;;10871243;32;20062;-71
2022/03/26 19:21:26;;;;;;;19.25;14.30;;;17.70;43.70;;;;;;10871045;32;20019;-72
2022/03/26 19:27:28;;;;;;;18.35;14.27;;;17.60;43.90;;;;;;10870662;32;20305;-69
2022/03/26 19:33:30;;;;;;;25.70;19.85;;;17.40;44.40;;;;;;10852841;32;20280;-69
2022/03/26 19:39:33;;;;;;;23.80;17.67;;;17.30;45.00;;;;;;10829468;32;20059;-69
2022/03/26 19:45:35;;;;;;;30.02;22.92;;;17.20;45.50;;;;;;10832720;32;20054;-69
2022/03/26 19:51:37;;;;;;;29.85;22.25;;;17.00;46.00;;;;;;10832745;32;20050;-69
2022/03/26 19:57:39;;;;;;;33.65;25.55;;;16.90;46.50;;;;;;10832618;32;20015;-69
2022/03/26 20:03:41;;;;;;;38.17;30.10;;;16.80;48.20;;;;;;10829487;32;20032;-69
2022/03/26 20:09:43;;;;;;;30.30;23.65;;;16.70;49.00;;;;;;10832217;32;20345;-69
2022/03/26 20:15:45;;;;;;;25.37;21.23;;;16.60;49.60;;;;;;10827632;33;20062;-69
2022/03/26 20:21:48;;;;;;;25.92;20.83;;;16.50;50.10;;;;;;10831448;32;20028;-69
2022/03/26 20:27:51;;;;;;;25.98;17.90;;;16.40;50.30;;;;;;10827988;32;20036;-69
2022/03/26 20:33:53;;;;;;;19.73;15.10;;;16.20;50.50;;;;;;10831070;32;20019;-69
2022/03/26 20:39:55;;;;;;;27.45;21.95;;;16.10;51.00;;;;;;10828724;32;20028;-69
2022/03/26 20:45:57;;;;;;;23.35;16.67;;;16.00;51.30;;;;;;10830244;32;20054;-69
2022/03/26 20:52:18;;;;;;;21.02;17.55;;;15.90;51.80;;;;;;10827732;32;20318;-69
2022/03/26 20:58:24;;;;;;;21.45;17.23;;;15.80;52.20;;;;;;10827388;32;20333;-69
2022/03/26 21:04:27;;;;;;;34.90;21.70;;;15.70;54.20;;;;;;10813807;33;20040;-71
2022/03/26 21:10:29;;;;;;;23.10;18.00;;;15.60;55.50;;;;;;10828736;32;20426;-69
2022/03/26 21:16:32;;;;;;;19.17;15.18;;;15.60;55.70;;;;;;10829184;32;20043;-69
2022/03/26 21:22:34;;;;;;;23.58;19.83;;;15.50;55.60;;;;;;10825744;33;20063;-69
2022/03/26 21:28:36;;;;;;;24.27;21.00;;;15.30;55.70;;;;;;10829672;32;20226;-69
2022/03/26 21:34:39;;;;;;;26.42;18.20;;;15.30;55.70;;;;;;10825888;33;20048;-69
2022/03/26 21:40:43;;;;;;;25.83;21.73;;;15.30;56.20;;;;;;10828161;33;20066;-69
2022/03/26 21:47:08;;;;;;;24.73;19.58;;;15.20;57.00;;;;;;10829453;33;20103;-69
2022/03/26 21:53:10;;;;;;;38.55;29.63;;;15.10;57.00;;;;;;10829517;33;20054;-69
2022/03/26 21:59:13;;;;;;;30.08;18.77;;;14.90;57.00;;;;;;10830084;32;20024;-69
2022/03/26 22:05:15;;;;;;;27.13;20.62;;;14.90;57.20;;;;;;10836392;32;20024;-69
2022/03/26 22:11:17;;;;;;;28.95;20.23;;;14.70;57.40;;;;;;10836119;32;20032;-69
2022/03/26 22:17:20;;;;;;;26.92;17.87;;;14.50;57.90;;;;;;10822181;32;20381;-69
2022/03/26 22:23:22;;;;;;;34.95;27.70;;;14.40;58.30;;;;;;10831819;32;20032;-69
2022/03/26 22:29:24;;;;;;;23.00;18.98;;;14.50;58.40;;;;;;10831206;32;20055;-69
2022/03/26 22:35:27;;;;;;;30.73;24.12;;;14.50;58.50;;;;;;10835370;32;20054;-69
2022/03/26 22:41:29;;;;;;;33.30;25.00;;;14.40;59.00;;;;;;10835161;32;20046;-69
2022/03/26 22:47:32;;;;;;;24.77;20.58;;;14.30;59.20;;;;;;10835018;32;20360;-69
2022/03/26 22:53:54;;;;;;;39.72;24.00;;;14.20;59.50;;;;;;10834821;32;20458;-69
2022/03/26 22:59:56;;;;;;;29.23;22.27;;;14.20;59.70;;;;;;10820012;32;20032;-69
2022/03/26 23:05:58;;;;;;;29.48;23.45;;;14.20;60.30;;;;;;10834350;32;20114;-69
2022/03/26 23:12:00;;;;;;;28.35;21.77;;;14.20;60.10;;;;;;10833672;32;20028;-69
2022/03/26 23:18:02;;;;;;;35.75;23.95;;;14.10;60.80;;;;;;10858263;27;20040;-69
2022/03/26 23:24:05;;;;;;;36.88;27.60;;;13.90;60.80;;;;;;10905089;32;20411;-69
2022/03/26 23:30:08;;;;;;;26.75;19.90;;;13.80;61.50;;;;;;10908090;32;20367;-69
2022/03/26 23:36:10;;;;;;;20.67;15.93;;;13.70;61.90;;;;;;10905722;32;20050;-69
2022/03/26 23:42:12;;;;;;;16.50;13.52;;;13.50;61.90;;;;;;10906396;32;20058;-69
2022/03/26 23:48:14;;;;;;;21.42;15.02;;;13.50;62.20;;;;;;10907209;32;20059;-69
2022/03/26 23:54:16;;;;;;;20.10;16.30;;;13.50;62.30;;;;;;10902867;32;20035;-68
